createdAt,value
2022-11-14T00:01:00.125Z,1.4
2022-11-14T00:02:07.864Z,1.8
2022-11-14T00:03:17.625Z,1.7
2022-11-14T00:04:29.622Z,1.3
2022-11-14T00:05:37.906Z,1.5
2022-11-14T00:06:47.658Z,1.4
2022-11-14T00:07:57.307Z,1.8
2022-11-14T00:09:07.005Z,1.7
2022-11-14T00:10:15.695Z,1.2
2022-11-14T00:11:25.552Z,1.4
2022-11-14T00:12:35.120Z,1.6
2022-11-14T00:13:43.800Z,1.4
2022-11-14T00:14:53.492Z,1.8
2022-11-14T00:16:01.166Z,1.5
2022-11-14T00:17:09.970Z,1.9
2022-11-14T00:18:19.636Z,1.8
2022-11-14T00:19:28.384Z,1.2
2022-11-14T00:20:38.076Z,1.8
2022-11-14T00:21:46.762Z,1.5
2022-11-14T00:22:55.467Z,1.3
2022-11-14T00:24:05.154Z,1.6
2022-11-14T00:25:13.821Z,1.3
2022-11-14T00:26:22.526Z,1.5
2022-11-14T00:27:32.304Z,2
2022-11-14T00:28:40.920Z,1.5
2022-11-14T00:29:50.589Z,1.8
2022-11-14T00:30:59.260Z,1.3
2022-11-14T00:32:07.948Z,1.6
2022-11-14T00:33:20.467Z,1.6
2022-11-14T00:34:26.289Z,1.5
2022-11-14T00:35:34.951Z,1.4
2022-11-14T00:36:44.623Z,2.2
2022-11-14T00:37:53.286Z,1.5
2022-11-14T00:39:02.960Z,1.2
2022-11-14T00:40:12.666Z,1.2
2022-11-14T00:41:20.351Z,1.7
2022-11-14T00:42:30.035Z,1.2
2022-11-14T00:43:39.826Z,1.6
2022-11-14T00:44:49.423Z,1.4
2022-11-14T00:45:59.112Z,1.3
2022-11-14T00:47:06.811Z,1.6
2022-11-14T00:48:16.498Z,1.7
2022-11-14T00:49:25.150Z,1.6
2022-11-14T00:50:33.832Z,1.5
2022-11-14T00:51:44.499Z,2.1
2022-11-14T00:52:54.172Z,1.3
2022-11-14T00:54:03.847Z,1.4
2022-11-14T00:55:13.505Z,1.4
2022-11-14T00:56:21.168Z,1.4
2022-11-14T00:57:30.866Z,1.7
2022-11-14T00:58:40.553Z,1.7
2022-11-14T00:59:48.385Z,1.5
2022-11-14T01:00:56.994Z,1.1
2022-11-14T01:02:04.612Z,1.6
2022-11-14T01:03:14.318Z,1.4
2022-11-14T01:04:23.977Z,1.7
2022-11-14T01:05:32.675Z,1.5
2022-11-14T01:06:42.350Z,1.5
2022-11-14T01:07:52.026Z,1.4
2022-11-14T01:08:59.864Z,1.5
2022-11-14T01:10:09.507Z,2.4
2022-11-14T01:11:18.178Z,1.5
2022-11-14T01:12:26.843Z,1.6
2022-11-14T01:13:36.514Z,2
2022-11-14T01:14:44.208Z,1.8
2022-11-14T01:15:53.001Z,1.6
2022-11-14T01:17:02.587Z,1.3
2022-11-14T01:18:10.253Z,1.8
2022-11-14T01:19:19.934Z,1.6
2022-11-14T01:20:27.742Z,1.7
2022-11-14T01:21:36.410Z,1.6
2022-11-14T01:22:46.076Z,1.2
2022-11-14T01:23:54.782Z,1.7
2022-11-14T01:25:04.467Z,1.8
2022-11-14T01:26:13.154Z,2.4
2022-11-14T01:27:20.833Z,1.6
2022-11-14T01:28:30.793Z,1.6
2022-11-14T01:29:38.181Z,1.6
2022-11-14T01:30:47.866Z,1.3
2022-11-14T01:31:56.670Z,1.7
2022-11-14T01:33:05.269Z,1.4
2022-11-14T01:34:14.939Z,1.3
2022-11-14T01:35:24.624Z,1.8
2022-11-14T01:36:33.310Z,1.3
2022-11-14T01:37:43.002Z,1.2
2022-11-14T01:38:51.674Z,1.5
2022-11-14T01:40:00.349Z,1.3
2022-11-14T01:41:10.081Z,1.6
2022-11-14T01:42:20.150Z,1.5
2022-11-14T01:43:29.445Z,1.1
2022-11-14T01:44:38.113Z,1.8
2022-11-14T01:45:45.793Z,1.1
2022-11-14T01:46:55.496Z,1.3
2022-11-14T01:48:04.331Z,1.3
2022-11-14T01:49:13.926Z,1.2
2022-11-14T01:50:23.696Z,1.1
2022-11-14T01:51:31.422Z,1.3
2022-11-14T01:52:41.097Z,1.5
2022-11-14T01:53:49.796Z,1.7
2022-11-14T01:54:59.499Z,1.4
2022-11-14T01:56:09.182Z,1
2022-11-14T01:57:17.864Z,1.3
2022-11-14T01:58:26.627Z,1.9
2022-11-14T01:59:36.218Z,1.5
2022-11-14T02:00:44.980Z,1.3
2022-11-14T02:01:54.838Z,1.4
2022-11-14T02:03:03.457Z,1.2
2022-11-14T02:04:15.299Z,1.7
2022-11-14T02:05:23.791Z,0.9
2022-11-14T02:06:32.499Z,1.6
2022-11-14T02:07:42.171Z,1.4
2022-11-14T02:08:50.851Z,0.9
2022-11-14T02:09:59.524Z,1
2022-11-14T02:11:09.190Z,1.2
2022-11-14T02:12:16.901Z,1.3
2022-11-14T02:13:26.582Z,1
2022-11-14T02:14:35.247Z,1.4
2022-11-14T02:15:42.904Z,1.4
2022-11-14T02:17:14.665Z,1.4
2022-11-14T02:18:01.223Z,1.1
2022-11-14T02:19:10.911Z,1.1
2022-11-14T02:20:20.624Z,1.1
2022-11-14T02:21:30.276Z,1.1
2022-11-14T02:22:39.953Z,1.4
2022-11-14T02:23:49.703Z,1.2
2022-11-14T02:24:58.376Z,1.3
2022-11-14T02:26:08.059Z,1.4
2022-11-14T02:27:16.715Z,1.2
2022-11-14T02:28:26.566Z,1.5
2022-11-14T02:29:36.175Z,1.1
2022-11-14T02:30:45.886Z,1.2
2022-11-14T02:31:55.557Z,1.3
2022-11-14T02:33:12.464Z,1
2022-11-14T02:34:13.880Z,1.4
2022-11-14T02:35:23.691Z,1.1
2022-11-14T02:36:33.246Z,1.3
2022-11-14T02:37:42.939Z,1.3
2022-11-14T02:38:52.624Z,1.3
2022-11-14T02:40:01.294Z,1.4
2022-11-14T02:41:11.001Z,1.4
2022-11-14T02:42:19.688Z,1.2
2022-11-14T02:43:27.414Z,1.7
2022-11-14T02:44:36.097Z,1.4
2022-11-14T02:45:43.766Z,1.2
2022-11-14T02:46:52.493Z,1.3
2022-11-14T02:48:02.172Z,1.3
2022-11-14T02:49:10.855Z,1.5
2022-11-14T02:50:20.556Z,1.6
2022-11-14T02:51:29.312Z,1
2022-11-14T02:52:37.923Z,1.7
2022-11-14T02:53:47.610Z,1.1
2022-11-14T02:54:57.257Z,1.3
2022-11-14T02:56:05.927Z,1.4
2022-11-14T02:57:14.585Z,1.3
2022-11-14T02:58:23.278Z,2
2022-11-14T02:59:32.956Z,1.5
2022-11-14T03:00:59.475Z,1.3
2022-11-14T03:01:51.441Z,1.2
2022-11-14T03:02:59.986Z,1.5
2022-11-14T03:04:08.697Z,1.3
2022-11-14T03:05:18.382Z,1.4
2022-11-14T03:06:28.049Z,1.8
2022-11-14T03:07:35.952Z,1.2
2022-11-14T03:08:45.419Z,1.4
2022-11-14T03:09:54.101Z,1.3
2022-11-14T03:11:02.860Z,2
2022-11-14T03:12:12.540Z,1.2
2022-11-14T03:13:20.210Z,1.5
2022-11-14T03:14:28.883Z,1.3
2022-11-14T03:15:38.623Z,1.9
2022-11-14T03:16:47.294Z,1.5
2022-11-14T03:17:56.969Z,1.5
2022-11-14T03:19:05.646Z,0.8
2022-11-14T03:20:13.319Z,1.5
2022-11-14T03:21:23.019Z,1.2
2022-11-14T03:22:30.691Z,1.8
2022-11-14T03:23:39.470Z,1.3
2022-11-14T03:24:49.043Z,1.8
2022-11-14T03:25:57.712Z,1.7
2022-11-14T03:27:07.436Z,1.6
2022-11-14T03:28:16.096Z,1.3
2022-11-14T03:29:23.767Z,2
2022-11-14T03:30:33.494Z,1.4
2022-11-14T03:31:42.153Z,1.3
2022-11-14T03:32:50.993Z,1.7
2022-11-14T03:34:00.668Z,1.4
2022-11-14T03:35:09.357Z,1.3
2022-11-14T03:36:19.044Z,1.6
2022-11-14T03:37:27.717Z,1.3
2022-11-14T03:38:35.416Z,1.1
2022-11-14T03:39:45.206Z,1.4
2022-11-14T03:40:54.779Z,1.2
2022-11-14T03:42:04.461Z,2.1
2022-11-14T03:43:14.124Z,1.5
2022-11-14T03:44:23.893Z,1.4
2022-11-14T03:45:33.620Z,1
2022-11-14T03:46:43.322Z,1.4
2022-11-14T03:47:51.986Z,1.2
2022-11-14T03:49:01.668Z,1.4
2022-11-14T03:50:10.376Z,1.4
2022-11-14T03:51:19.039Z,1.1
2022-11-14T03:52:28.714Z,1.3
2022-11-14T03:53:38.383Z,1.5
2022-11-14T03:54:48.188Z,2
2022-11-14T03:55:57.766Z,2.1
2022-11-14T03:57:07.475Z,1.3
2022-11-14T03:58:17.147Z,1.2
2022-11-14T03:59:25.819Z,1.2
2022-11-14T04:00:34.523Z,0.9
2022-11-14T04:01:44.200Z,1.5
2022-11-14T04:02:53.886Z,1.5
2022-11-14T04:04:03.552Z,1.1
2022-11-14T04:05:12.210Z,2.5
2022-11-14T04:06:21.971Z,1.8
2022-11-14T04:07:31.863Z,1.5
2022-11-14T04:08:40.414Z,1.4
2022-11-14T04:09:50.133Z,1.5
2022-11-14T04:10:58.969Z,1.9
2022-11-14T04:12:12.761Z,1.4
2022-11-14T04:13:18.202Z,1.5
2022-11-14T04:14:27.887Z,1.4
2022-11-14T04:15:37.569Z,1.3
2022-11-14T04:16:46.228Z,1.3
2022-11-14T04:17:53.914Z,1.2
2022-11-14T04:19:03.635Z,1.1
2022-11-14T04:20:13.366Z,1.3
2022-11-14T04:21:22.047Z,1.3
2022-11-14T04:22:31.713Z,1.2
2022-11-14T04:23:39.396Z,1.3
2022-11-14T04:24:49.123Z,1.3
2022-11-14T04:25:57.786Z,1.5
2022-11-14T04:27:05.566Z,1.3
2022-11-14T04:28:15.126Z,1.3
2022-11-14T04:29:24.385Z,1.3
2022-11-14T04:30:34.913Z,0.7
2022-11-14T04:31:43.778Z,1.2
2022-11-14T04:32:53.415Z,1.3
2022-11-14T04:34:03.080Z,1.2
2022-11-14T04:35:12.751Z,1.4
2022-11-14T04:36:21.442Z,1
2022-11-14T04:37:31.118Z,1.4
2022-11-14T04:38:38.830Z,1.2
2022-11-14T04:39:47.515Z,1.4
2022-11-14T04:40:57.196Z,1.1
2022-11-14T04:42:04.884Z,1.3
2022-11-14T04:43:14.718Z,1.4
2022-11-14T04:44:24.270Z,1.2
2022-11-14T04:45:32.002Z,1.4
2022-11-14T04:46:41.608Z,1.6
2022-11-14T04:47:51.313Z,1.2
2022-11-14T04:48:59.984Z,1.4
2022-11-14T04:50:09.660Z,1.9
2022-11-14T04:51:18.311Z,1.1
2022-11-14T04:52:28.016Z,1.3
2022-11-14T04:53:36.715Z,1.7
2022-11-14T04:54:45.386Z,2.1
2022-11-14T04:55:55.062Z,1.1
2022-11-14T04:57:03.729Z,1.3
2022-11-14T04:58:12.420Z,1.2
2022-11-14T04:59:22.084Z,2
2022-11-14T05:00:30.763Z,1.4
2022-11-14T05:01:40.507Z,0.9
2022-11-14T05:02:49.129Z,1.5
2022-11-14T05:03:57.802Z,1.6
2022-11-14T05:05:07.529Z,1.3
2022-11-14T05:06:16.234Z,1.3
2022-11-14T05:07:24.967Z,1.3
2022-11-14T05:08:34.567Z,1.5
2022-11-14T05:09:44.242Z,1.3
2022-11-14T05:10:53.938Z,1.6
2022-11-14T05:12:02.597Z,1.2
2022-11-14T05:13:10.273Z,1.2
2022-11-14T05:14:19.962Z,1.1
2022-11-14T05:15:28.624Z,1.5
2022-11-14T05:16:38.324Z,1.2
2022-11-14T05:17:48.024Z,1.2
2022-11-14T05:18:56.680Z,1
2022-11-14T05:20:06.356Z,1.1
2022-11-14T05:21:15.014Z,1.1
2022-11-14T05:22:22.729Z,1.3
2022-11-14T05:23:32.392Z,1.4
2022-11-14T05:24:40.056Z,1.6
2022-11-14T05:25:48.762Z,1.1
2022-11-14T05:26:58.452Z,1.5
2022-11-14T05:28:07.142Z,1.2
2022-11-14T05:29:16.830Z,1.3
2022-11-14T05:30:26.502Z,1.2
2022-11-14T05:31:35.178Z,1.1
2022-11-14T05:32:44.858Z,1.3
2022-11-14T05:33:54.689Z,1.3
2022-11-14T05:35:04.339Z,1.5
2022-11-14T05:36:14.003Z,1.7
2022-11-14T05:37:22.681Z,1.1
2022-11-14T05:38:32.558Z,1.1
2022-11-14T05:39:41.059Z,1
2022-11-14T05:40:49.758Z,1.1
2022-11-14T05:41:58.442Z,1.2
2022-11-14T05:43:06.133Z,1.1
2022-11-14T05:44:14.803Z,1
2022-11-14T05:45:24.526Z,1.2
2022-11-14T05:46:33.252Z,1
2022-11-14T05:47:42.961Z,0.9
2022-11-14T05:48:52.645Z,2
2022-11-14T05:50:02.357Z,1.5
2022-11-14T05:51:12.071Z,1.3
2022-11-14T05:52:19.741Z,1.2
2022-11-14T05:53:28.447Z,1.3
2022-11-14T05:54:38.209Z,1
2022-11-14T05:55:45.927Z,1.7
2022-11-14T05:56:55.662Z,1.5
2022-11-14T05:58:05.335Z,1.6
2022-11-14T05:59:13.089Z,1.8
2022-11-14T06:00:22.792Z,1.3
2022-11-14T06:01:31.538Z,1.6
2022-11-14T06:02:40.222Z,1.5
2022-11-14T06:03:49.938Z,1.5
2022-11-14T06:04:58.634Z,1.6
2022-11-14T06:06:08.346Z,0.9
2022-11-14T06:07:20.252Z,1.5
2022-11-14T06:08:28.997Z,0.8
2022-11-14T06:09:37.461Z,0.9
2022-11-14T06:10:46.245Z,0.8
2022-11-14T06:11:55.970Z,0.8
2022-11-14T06:13:03.621Z,1.4
2022-11-14T06:14:12.309Z,1.3
2022-11-14T06:15:21.997Z,1
2022-11-14T06:16:29.685Z,0.9
2022-11-14T06:17:39.390Z,0.9
2022-11-14T06:18:49.096Z,1.2
2022-11-14T06:19:58.944Z,0.8
2022-11-14T06:21:08.678Z,1.3
2022-11-14T06:22:18.494Z,1
2022-11-14T06:23:27.173Z,0.8
2022-11-14T06:24:35.931Z,0.7
2022-11-14T06:25:45.634Z,0.7
2022-11-14T06:26:55.307Z,0.9
2022-11-14T06:28:04.014Z,0.6
2022-11-14T06:29:12.788Z,0.7
2022-11-14T06:30:22.529Z,0.9
2022-11-14T06:31:31.282Z,0.9
2022-11-14T06:32:40.990Z,1.1
2022-11-14T06:33:50.675Z,0.9
2022-11-14T06:34:59.411Z,0.7
2022-11-14T06:36:09.090Z,1
2022-11-14T06:37:18.954Z,0.6
2022-11-14T06:38:29.011Z,0.6
2022-11-14T06:39:38.395Z,1.2
2022-11-14T06:40:46.087Z,1.2
2022-11-14T06:41:54.901Z,1
2022-11-14T06:43:04.636Z,0.8
2022-11-14T06:44:12.325Z,0.9
2022-11-14T06:45:22.064Z,0.8
2022-11-14T06:46:30.779Z,1.4
2022-11-14T06:47:39.472Z,1
2022-11-14T06:48:49.180Z,1.1
2022-11-14T06:49:56.912Z,1.1
2022-11-14T06:51:05.617Z,0.8
2022-11-14T06:52:15.313Z,0.7
2022-11-14T06:53:24.023Z,1
2022-11-14T06:54:33.733Z,1.1
2022-11-14T06:55:42.440Z,0.8
2022-11-14T06:56:50.151Z,1.2
2022-11-14T06:57:59.870Z,0.6
2022-11-14T06:59:08.574Z,1.3
2022-11-14T07:00:18.285Z,0.7
2022-11-14T07:01:28.016Z,0.8
2022-11-14T07:02:36.811Z,1
2022-11-14T07:03:46.425Z,1.1
2022-11-14T07:04:55.114Z,1.1
2022-11-14T07:06:03.881Z,1.1
2022-11-14T07:07:13.558Z,0.9
2022-11-14T07:08:23.212Z,1
2022-11-14T07:09:31.957Z,0.9
2022-11-14T07:10:41.723Z,1.3
2022-11-14T07:11:49.385Z,1
2022-11-14T07:12:59.071Z,1.1
2022-11-14T07:14:07.735Z,1.4
2022-11-14T07:15:16.418Z,1.8
2022-11-14T07:16:26.110Z,1.3
2022-11-14T07:17:35.797Z,1.4
2022-11-14T07:18:44.598Z,1
2022-11-14T07:19:54.261Z,1
2022-11-14T07:21:01.990Z,1.4
2022-11-14T07:22:11.694Z,1.1
2022-11-14T07:23:22.939Z,1.2
2022-11-14T07:24:29.176Z,1.1
2022-11-14T07:25:38.900Z,1
2022-11-14T07:26:48.643Z,1.3
2022-11-14T07:27:57.331Z,1.6
2022-11-14T07:29:07.021Z,1.6
2022-11-14T07:30:15.773Z,1.7
2022-11-14T07:31:25.472Z,1.4
2022-11-14T07:32:34.176Z,1.8
2022-11-14T07:33:41.924Z,1.8
2022-11-14T07:34:51.668Z,1.8
2022-11-14T07:36:00.351Z,1.6
2022-11-14T07:37:10.040Z,1.3
2022-11-14T07:38:19.732Z,1.3
2022-11-14T07:39:28.515Z,1.6
2022-11-14T07:40:38.339Z,1.1
2022-11-14T07:41:47.055Z,2.1
2022-11-14T07:42:55.823Z,1.8
2022-11-14T07:44:05.501Z,2.1
2022-11-14T07:45:13.200Z,1.6
2022-11-14T07:46:22.953Z,1.6
2022-11-14T07:47:32.656Z,1.5
2022-11-14T07:48:40.345Z,1.2
2022-11-14T07:49:50.033Z,1.4
2022-11-14T07:50:58.703Z,1.3
2022-11-14T07:52:06.552Z,1.2
2022-11-14T07:53:16.275Z,1.4
2022-11-14T07:54:24.977Z,1.9
2022-11-14T07:55:33.659Z,1.9
2022-11-14T07:56:43.367Z,1.5
2022-11-14T07:57:53.072Z,1.8
2022-11-14T07:59:02.858Z,1.5
2022-11-14T08:00:11.441Z,1.6
2022-11-14T08:01:19.190Z,1.5
2022-11-14T08:02:28.837Z,1.7
2022-11-14T08:03:41.028Z,2.3
2022-11-14T08:04:48.235Z,1.7
2022-11-14T08:05:56.928Z,1.9
2022-11-14T08:07:05.746Z,1.7
2022-11-14T08:08:15.399Z,2.1
2022-11-14T08:09:23.115Z,1.3
2022-11-14T08:10:33.867Z,2.1
2022-11-14T08:11:42.522Z,1.4
2022-11-14T08:13:04.822Z,1.2
2022-11-14T08:14:02.914Z,1.3
2022-11-14T08:15:12.660Z,1.3
2022-11-14T08:16:22.309Z,1.4
2022-11-14T08:17:31.976Z,1.4
2022-11-14T08:18:40.707Z,1.4
2022-11-14T08:19:50.375Z,1.6
2022-11-14T08:21:00.091Z,1.3
2022-11-14T08:22:07.775Z,1
2022-11-14T08:23:17.485Z,1.3
2022-11-14T08:24:25.165Z,1.4
2022-11-14T08:25:33.850Z,1.2
2022-11-14T08:26:43.708Z,1.5
2022-11-14T08:27:51.401Z,1.5
2022-11-14T08:29:01.123Z,1.6
2022-11-14T08:30:10.800Z,1.4
2022-11-14T08:31:20.589Z,1.4
2022-11-14T08:32:30.286Z,1.8
2022-11-14T08:33:38.968Z,1.8
2022-11-14T08:34:47.704Z,2.2
2022-11-14T08:35:56.392Z,2.1
2022-11-14T08:37:05.084Z,2.1
2022-11-14T08:38:14.801Z,1.7
2022-11-14T08:39:23.588Z,1.5
2022-11-14T08:40:32.256Z,1
2022-11-14T08:41:41.968Z,1.3
2022-11-14T08:42:50.604Z,1.4
2022-11-14T08:44:00.424Z,1.5
2022-11-14T08:45:10.100Z,1.1
2022-11-14T08:46:17.793Z,1.3
2022-11-14T08:47:27.541Z,1.2
2022-11-14T08:48:36.216Z,1
2022-11-14T08:49:45.985Z,1
2022-11-14T08:50:55.722Z,1.1
2022-11-14T08:52:04.521Z,1.2
2022-11-14T08:53:14.260Z,1.3
2022-11-14T08:54:23.948Z,1.5
2022-11-14T08:55:31.691Z,1.5
2022-11-14T08:56:41.362Z,1.3
2022-11-14T08:57:51.033Z,1.3
2022-11-14T08:58:58.787Z,1.2
2022-11-14T09:00:08.515Z,1.2
2022-11-14T09:01:16.265Z,1.3
2022-11-14T09:02:25.074Z,1.4
2022-11-14T09:03:34.917Z,1.1
2022-11-14T09:04:42.608Z,1
2022-11-14T09:05:52.251Z,1
2022-11-14T09:07:02.020Z,1.4
2022-11-14T09:08:10.697Z,1.4
2022-11-14T09:09:20.397Z,1.4
2022-11-14T09:10:29.079Z,1.2
2022-11-14T09:11:37.789Z,1
2022-11-14T09:12:47.526Z,1.5
2022-11-14T09:13:55.214Z,1.2
2022-11-14T09:15:04.940Z,1.1
2022-11-14T09:16:14.674Z,1
2022-11-14T09:17:24.416Z,1.4
2022-11-14T09:18:34.247Z,1.4
2022-11-14T09:19:43.921Z,1.4
2022-11-14T09:20:52.582Z,1.3
2022-11-14T09:22:02.298Z,1.3
2022-11-14T09:23:10.977Z,1.5
2022-11-14T09:24:20.728Z,1.1
2022-11-14T09:25:30.412Z,1.1
2022-11-14T09:26:39.155Z,1.2
2022-11-14T09:27:48.877Z,1.3
2022-11-14T09:28:57.564Z,1.2
2022-11-14T09:30:07.508Z,1.4
2022-11-14T09:31:16.235Z,1.5
2022-11-14T09:32:23.941Z,1.7
2022-11-14T09:33:32.827Z,1.7
2022-11-14T09:34:42.380Z,1.7
2022-11-14T09:35:52.122Z,1.5
2022-11-14T09:37:01.811Z,1.7
2022-11-14T09:38:09.470Z,1.6
2022-11-14T09:39:18.155Z,1.5
2022-11-14T09:40:27.924Z,1.8
2022-11-14T09:41:36.627Z,1.3
2022-11-14T09:42:46.335Z,1.5
2022-11-14T09:43:56.023Z,2
2022-11-14T09:45:04.709Z,1.4
2022-11-14T09:46:14.420Z,1.4
2022-11-14T09:47:24.314Z,1.2
2022-11-14T09:48:33.125Z,1.3
2022-11-14T09:49:42.765Z,1.2
2022-11-14T09:50:51.469Z,1.1
2022-11-14T09:52:01.196Z,1.5
2022-11-14T09:53:09.882Z,1.1
2022-11-14T09:54:18.538Z,1.3
2022-11-14T09:55:31.058Z,1
2022-11-14T09:56:36.935Z,0.9
2022-11-14T09:57:45.631Z,0.9
2022-11-14T09:58:55.346Z,1.1
2022-11-14T10:00:04.025Z,1.7
2022-11-14T10:01:13.700Z,1
2022-11-14T10:02:22.478Z,1.1
2022-11-14T10:03:32.486Z,1.5
2022-11-14T10:04:40.791Z,1.2
2022-11-14T10:05:48.454Z,1
2022-11-14T10:06:57.209Z,1
2022-11-14T10:08:06.877Z,1.3
2022-11-14T10:09:16.521Z,1.2
2022-11-14T10:10:26.223Z,1.2
2022-11-14T10:11:33.910Z,1
2022-11-14T10:12:43.607Z,0.9
2022-11-14T10:13:52.293Z,1.2
2022-11-14T10:15:02.022Z,1
2022-11-14T10:16:11.741Z,1.2
2022-11-14T10:17:19.434Z,1.3
2022-11-14T10:18:28.373Z,1.1
2022-11-14T10:19:42.471Z,1.4
2022-11-14T10:20:47.427Z,1
2022-11-14T10:21:57.123Z,1.2
2022-11-14T10:23:06.797Z,1.2
2022-11-14T10:24:16.505Z,1.4
2022-11-14T10:25:26.170Z,0.8
2022-11-14T10:26:33.852Z,0.8
2022-11-14T10:27:42.718Z,1.1
2022-11-14T10:28:52.406Z,1
2022-11-14T10:30:00.092Z,0.6
2022-11-14T10:31:09.755Z,1.1
2022-11-14T10:32:18.449Z,1.2
2022-11-14T10:33:27.260Z,1.2
2022-11-14T10:34:36.951Z,0.9
2022-11-14T10:35:46.671Z,1
2022-11-14T10:36:55.377Z,1.3
2022-11-14T10:38:05.084Z,0.9
2022-11-14T10:39:14.890Z,1.1
2022-11-14T10:40:24.611Z,0.9
2022-11-14T10:41:55.892Z,1
2022-11-14T10:42:42.943Z,1.1
2022-11-14T10:43:52.634Z,1.1
2022-11-14T10:45:01.335Z,1
2022-11-14T10:46:10.034Z,0.9
2022-11-14T10:47:19.721Z,0.8
2022-11-14T10:48:27.655Z,1.1
2022-11-14T10:49:36.103Z,1.2
2022-11-14T10:50:44.955Z,0.9
2022-11-14T10:51:52.636Z,0.9
2022-11-14T10:53:02.334Z,1.2
2022-11-14T10:54:10.003Z,0.9
2022-11-14T10:55:22.536Z,0.8
2022-11-14T10:56:30.403Z,0.9
2022-11-14T10:57:39.088Z,0.9
2022-11-14T10:58:50.033Z,1
2022-11-14T10:59:58.596Z,0.9
2022-11-14T11:01:06.295Z,0.8
2022-11-14T11:02:16.167Z,1.1
2022-11-14T11:03:23.852Z,1.1
2022-11-14T11:04:33.557Z,1
2022-11-14T11:05:43.244Z,1.1
2022-11-14T11:06:50.974Z,1.1
2022-11-14T11:08:10.248Z,1
2022-11-14T11:09:10.344Z,1.2
2022-11-14T11:10:18.984Z,0.7
2022-11-14T11:11:28.659Z,0.7
2022-11-14T11:12:38.421Z,0.8
2022-11-14T11:13:48.043Z,0.8
2022-11-14T11:14:57.719Z,1
2022-11-14T11:16:05.425Z,0.9
2022-11-14T11:17:15.142Z,0.8
2022-11-14T11:18:23.790Z,0.8
2022-11-14T11:19:32.551Z,1
2022-11-14T11:20:42.247Z,0.9
2022-11-14T11:21:50.999Z,0.8
2022-11-14T11:23:03.145Z,1
2022-11-14T11:24:10.291Z,1
2022-11-14T11:25:18.997Z,0.9
2022-11-14T11:26:28.675Z,0.9
2022-11-14T11:27:38.340Z,0.8
2022-11-14T11:28:48.113Z,1.3
2022-11-14T11:29:57.740Z,1.2
2022-11-14T11:31:05.455Z,1
2022-11-14T11:32:14.141Z,1.1
2022-11-14T11:33:23.830Z,1.1
2022-11-14T11:34:32.501Z,0.9
2022-11-14T11:35:42.242Z,1.1
2022-11-14T11:36:51.000Z,1
2022-11-14T11:37:59.659Z,1.1
2022-11-14T11:39:09.345Z,1.5
2022-11-14T11:40:18.051Z,1.3
2022-11-14T11:42:07.477Z,1.4
2022-11-14T11:43:47.025Z,1
2022-11-14T11:44:56.843Z,1.4
2022-11-14T11:46:05.503Z,1.7
2022-11-14T11:47:14.186Z,1.2
2022-11-14T11:48:23.891Z,1.3
2022-11-14T11:49:31.566Z,1.1
2022-11-14T11:50:40.253Z,1.4
2022-11-14T11:51:49.944Z,1.7
2022-11-14T11:52:57.625Z,1.5
2022-11-14T11:54:07.463Z,1.2
2022-11-14T11:55:17.139Z,1.6
2022-11-14T11:56:24.837Z,1.3
2022-11-14T11:57:34.513Z,1.2
2022-11-14T11:58:43.202Z,1.1
2022-11-14T11:59:51.937Z,1.1
2022-11-14T12:01:01.638Z,1.3
2022-11-14T12:02:12.928Z,0.8
2022-11-14T12:03:21.133Z,1
2022-11-14T12:04:28.706Z,1.2
2022-11-14T12:05:38.515Z,1.5
2022-11-14T12:06:47.223Z,1
2022-11-14T12:07:56.883Z,1.7
2022-11-14T12:09:06.689Z,1.8
2022-11-14T12:10:16.476Z,1.6
2022-11-14T12:11:25.106Z,1.9
2022-11-14T12:12:33.778Z,1.4
2022-11-14T12:13:41.472Z,1.6
2022-11-14T12:14:51.165Z,1.5
2022-11-14T12:15:59.844Z,1.9
2022-11-14T12:17:08.566Z,2.2
2022-11-14T12:18:18.257Z,2.6
2022-11-14T12:19:25.942Z,2.7
2022-11-14T12:20:34.662Z,2.5
2022-11-14T12:21:44.321Z,2
2022-11-14T12:22:54.024Z,2.3
2022-11-14T12:24:03.748Z,2.4
2022-11-14T12:25:12.393Z,2.3
2022-11-14T12:26:21.086Z,2.7
2022-11-14T12:27:30.860Z,3
2022-11-14T12:28:39.478Z,2.5
2022-11-14T12:29:48.227Z,2.9
2022-11-14T12:30:57.912Z,2.5
2022-11-14T12:32:07.579Z,2.5
2022-11-14T12:33:17.285Z,2.4
2022-11-14T12:34:27.017Z,2.5
2022-11-14T12:35:34.678Z,2.5
2022-11-14T12:36:44.320Z,2.2
2022-11-14T12:37:55.718Z,2.3
2022-11-14T12:39:02.695Z,2
2022-11-14T12:40:11.502Z,1.2
2022-11-14T12:41:20.167Z,1.1
2022-11-14T12:42:29.821Z,1.4
2022-11-14T12:43:39.821Z,1.6
2022-11-14T12:44:49.185Z,1.3
2022-11-14T12:45:58.926Z,1.3
2022-11-14T12:47:07.624Z,1.2
2022-11-14T12:48:17.363Z,1.2
2022-11-14T12:49:30.312Z,1.2
2022-11-14T12:50:37.772Z,1.6
2022-11-14T12:51:47.438Z,1.5
2022-11-14T12:52:56.107Z,1.7
2022-11-14T12:54:03.774Z,1.7
2022-11-14T12:55:13.498Z,1.9
2022-11-14T12:56:22.187Z,1.5
2022-11-14T12:57:32.016Z,1.8
2022-11-14T12:58:41.707Z,1.9
2022-11-14T12:59:49.387Z,2
2022-11-14T13:00:59.099Z,1.7
2022-11-14T13:02:07.732Z,1.7
2022-11-14T13:03:15.473Z,1.8
2022-11-14T13:04:25.146Z,1.9
2022-11-14T13:05:34.853Z,1.6
2022-11-14T13:06:43.624Z,1.6
2022-11-14T13:07:53.248Z,2.1
2022-11-14T13:09:02.971Z,2
2022-11-14T13:10:12.707Z,1.8
2022-11-14T13:11:21.325Z,1.8
2022-11-14T13:12:30.006Z,1.4
2022-11-14T13:13:39.669Z,1
2022-11-14T13:14:48.350Z,1
2022-11-14T13:15:57.038Z,1.2
2022-11-14T13:17:06.729Z,1.5
2022-11-14T13:18:16.430Z,1.6
2022-11-14T13:19:26.113Z,1.4
2022-11-14T13:20:34.814Z,1.9
2022-11-14T13:21:45.787Z,1.6
2022-11-14T13:22:55.235Z,1.4
2022-11-14T13:24:03.981Z,1.3
2022-11-14T13:25:12.662Z,1.4
2022-11-14T13:26:22.484Z,1.4
2022-11-14T13:27:52.628Z,0.7
2022-11-14T13:28:42.818Z,1.4
2022-11-14T13:29:51.511Z,1.6
2022-11-14T13:30:59.220Z,1.2
2022-11-14T13:32:08.910Z,1.3
2022-11-14T13:33:17.628Z,1.1
2022-11-14T13:34:26.323Z,1
2022-11-14T13:35:36.027Z,1.5
2022-11-14T13:36:45.703Z,1
2022-11-14T13:37:55.498Z,1.1
2022-11-14T13:39:04.108Z,1.1
2022-11-14T13:40:15.692Z,1.1
2022-11-14T13:41:25.326Z,2.4
2022-11-14T13:42:34.021Z,0.8
2022-11-14T13:43:42.779Z,1
2022-11-14T13:44:52.546Z,1
2022-11-14T13:46:00.214Z,0.9
2022-11-14T13:47:10.236Z,1.1
2022-11-14T13:48:18.894Z,1.1
2022-11-14T13:49:26.581Z,1.8
2022-11-14T13:50:36.249Z,1.1
2022-11-14T13:51:45.917Z,1.3
2022-11-14T13:52:54.614Z,0.9
2022-11-14T13:54:04.356Z,1.1
2022-11-14T13:55:13.034Z,1.3
2022-11-14T13:56:22.710Z,1.1
2022-11-14T13:57:30.482Z,1.2
2022-11-14T13:58:40.189Z,1.1
2022-11-14T13:59:49.881Z,0.6
2022-11-14T14:00:58.707Z,0.7
2022-11-14T14:02:08.381Z,0.7
2022-11-14T14:03:18.056Z,1
2022-11-14T14:04:26.734Z,1
2022-11-14T14:05:36.425Z,0.7
2022-11-14T14:06:44.168Z,1
2022-11-14T14:07:53.794Z,1.8
2022-11-14T14:09:03.504Z,1
2022-11-14T14:10:12.266Z,1
2022-11-14T14:11:21.963Z,1.2
2022-11-14T14:12:30.646Z,1.3
2022-11-14T14:13:40.423Z,1.1
2022-11-14T14:14:50.032Z,1.1
2022-11-14T14:15:57.691Z,0.9
2022-11-14T14:17:07.363Z,0.9
2022-11-14T14:18:17.058Z,1.2
2022-11-14T14:19:26.699Z,1.2
2022-11-14T14:20:36.443Z,1.1
2022-11-14T14:21:46.141Z,1
2022-11-14T14:22:54.844Z,1.3
2022-11-14T14:24:04.532Z,1.1
2022-11-14T14:25:12.204Z,1.3
2022-11-14T14:26:22.117Z,1.1
2022-11-14T14:27:30.670Z,1
2022-11-14T14:28:39.325Z,1.2
2022-11-14T14:29:49.127Z,1.3
2022-11-14T14:30:57.834Z,1.2
2022-11-14T14:32:06.503Z,1.3
2022-11-14T14:33:16.165Z,2.6
2022-11-14T14:34:24.888Z,1.9
2022-11-14T14:35:39.183Z,1.8
2022-11-14T14:36:43.181Z,1.5
2022-11-14T14:37:50.848Z,1.8
2022-11-14T14:39:00.539Z,1.4
2022-11-14T14:40:08.198Z,1.7
2022-11-14T14:41:16.909Z,1.3
2022-11-14T14:42:32.186Z,1.4
2022-11-14T14:43:38.303Z,1.5
2022-11-14T14:44:47.986Z,2.3
2022-11-14T14:45:57.693Z,2.5
2022-11-14T14:47:05.485Z,2.1
2022-11-14T14:48:15.166Z,1.6
2022-11-14T14:49:23.854Z,1.4
2022-11-14T14:50:33.534Z,1.3
2022-11-14T14:51:43.185Z,1.3
2022-11-14T14:52:50.881Z,1.1
2022-11-14T14:54:00.545Z,1.6
2022-11-14T14:55:10.204Z,1.6
2022-11-14T14:56:18.860Z,1.9
2022-11-14T14:57:28.569Z,2.1
2022-11-14T14:58:38.325Z,2
2022-11-14T14:59:47.941Z,2
2022-11-14T15:00:57.658Z,1.9
2022-11-14T15:02:05.265Z,1.6
2022-11-14T15:03:14.960Z,1.5
2022-11-14T15:04:23.668Z,1.8
2022-11-14T15:05:32.348Z,2.3
2022-11-14T15:06:42.009Z,2.5
2022-11-14T15:07:51.683Z,2.1
2022-11-14T15:09:00.379Z,2
2022-11-14T15:10:10.073Z,2.2
2022-11-14T15:11:18.740Z,1.9
2022-11-14T15:12:28.402Z,2.1
2022-11-14T15:13:37.103Z,2.4
2022-11-14T15:14:45.795Z,2.3
2022-11-14T15:15:55.512Z,2.7
2022-11-14T15:17:03.169Z,2.6
2022-11-14T15:18:11.885Z,2.4
2022-11-14T15:19:21.558Z,2.1
2022-11-14T15:20:30.234Z,2.3
2022-11-14T15:21:39.967Z,1.8
2022-11-14T15:22:49.642Z,1.9
2022-11-14T15:23:57.314Z,1.8
2022-11-14T15:25:06.985Z,1.9
2022-11-14T15:26:15.659Z,1.7
2022-11-14T15:27:24.358Z,2.1
2022-11-14T15:28:34.212Z,2.3
2022-11-14T15:29:42.687Z,2.8
2022-11-14T15:30:52.424Z,2.1
2022-11-14T15:32:01.062Z,2.4
2022-11-14T15:33:08.742Z,2.5
2022-11-14T15:34:18.423Z,2.3
2022-11-14T15:35:28.072Z,1.9
2022-11-14T15:36:36.729Z,2
2022-11-14T15:37:46.417Z,2.3
2022-11-14T15:38:54.372Z,1.9
2022-11-14T15:40:03.844Z,2.3
2022-11-14T15:41:12.449Z,1.7
2022-11-14T15:42:20.136Z,1.9
2022-11-14T15:43:29.812Z,1.9
2022-11-14T15:44:38.510Z,2.2
2022-11-14T15:45:47.175Z,2.3
2022-11-14T15:46:56.919Z,2
2022-11-14T15:48:05.571Z,2
2022-11-14T15:49:15.243Z,2.3
2022-11-14T15:50:23.907Z,2.4
2022-11-14T15:51:31.578Z,2.5
2022-11-14T15:52:40.245Z,2.4
2022-11-14T15:53:49.900Z,2.3
2022-11-14T15:54:59.580Z,2.3
2022-11-14T15:56:09.435Z,2.5
2022-11-14T15:57:17.090Z,4.2
2022-11-14T15:58:28.562Z,3.2
2022-11-14T15:59:36.396Z,2.8
2022-11-14T16:00:46.114Z,2.8